Time;durP1;ratioP1;P1;durP2;ratioP2;P2;SDS_P1;SDS_P2;PMS_P1;PMS_P2;Temp;Humidity;BMP_temperature;BMP_pressure;BME280_temperature;BME280_humidity;BME280_pressure;Samples;Min_cycle;Max_cycle;Signal;HPM_P1;HPM_P2
2023/02/14 00:00:50;;;;;;;28.08;20.30;;;6.20;99.90;;;;;;5075321;28;20029;-89
2023/02/14 00:03:15;;;;;;;33.15;20.92;;;6.30;99.90;;;;;;5075658;28;20093;-89
2023/02/14 00:05:41;;;;;;;33.30;21.27;;;6.40;99.90;;;;;;5075615;28;20017;-89
2023/02/14 00:08:07;;;;;;;35.05;21.55;;;6.40;99.90;;;;;;5075591;28;20032;-89
2023/02/14 00:10:32;;;;;;;32.85;21.55;;;6.30;99.90;;;;;;5075626;28;20107;-89
2023/02/14 00:12:58;;;;;;;32.10;21.35;;;6.50;99.90;;;;;;5075031;28;20089;-90
2023/02/14 00:15:24;;;;;;;34.05;22.02;;;6.20;99.90;;;;;;5075261;28;20020;-89
2023/02/14 00:17:51;;;;;;;32.22;22.08;;;6.20;99.90;;;;;;5075994;28;20099;-89
2023/02/14 00:20:17;;;;;;;30.88;21.83;;;6.40;99.90;;;;;;5076050;28;20032;-89
2023/02/14 00:22:43;;;;;;;32.30;21.30;;;6.10;99.90;;;;;;5075765;28;20029;-89
2023/02/14 00:25:09;;;;;;;29.67;21.38;;;6.10;99.90;;;;;;5073984;28;20485;-89
2023/02/14 00:27:35;;;;;;;35.85;23.42;;;6.50;99.90;;;;;;5075271;28;20504;-89
2023/02/14 00:30:03;;;;;;;34.17;22.83;;;5.90;99.90;;;;;;5073601;28;20477;-89
2023/02/14 00:32:29;;;;;;;33.25;22.50;;;5.90;99.90;;;;;;5073653;28;20477;-89
2023/02/14 00:34:55;;;;;;;31.25;22.27;;;5.90;99.90;;;;;;5075079;28;20027;-89
2023/02/14 00:37:21;;;;;;;35.33;22.48;;;6.00;99.90;;;;;;5073930;28;20382;-89
2023/02/14 00:39:46;;;;;;;34.47;22.25;;;6.00;99.90;;;;;;5074830;28;20476;-90
2023/02/14 00:42:12;;;;;;;34.22;22.50;;;5.80;99.90;;;;;;5074692;28;20052;-89
2023/02/14 00:44:38;;;;;;;34.08;23.45;;;5.70;99.90;;;;;;5074583;28;20048;-90
2023/02/14 00:47:04;;;;;;;33.47;22.40;;;5.90;99.90;;;;;;5074929;28;20024;-89
2023/02/14 00:49:30;;;;;;;34.15;23.95;;;5.70;99.90;;;;;;5074750;28;20086;-89
2023/02/14 00:51:55;;;;;;;34.63;22.98;;;5.80;99.90;;;;;;5073455;28;20473;-89
2023/02/14 00:54:21;;;;;;;32.72;22.42;;;5.90;99.90;;;;;;5074417;28;20047;-89
2023/02/14 00:56:46;;;;;;;31.60;22.55;;;5.90;99.90;;;;;;5073491;28;20044;-89
2023/02/14 00:59:12;;;;;;;35.15;23.23;;;5.70;99.90;;;;;;5073067;28;20028;-89
2023/02/14 01:01:38;;;;;;;30.17;21.02;;;5.50;99.90;;;;;;5074620;28;20094;-89
2023/02/14 01:04:04;;;;;;;31.48;21.38;;;5.50;99.90;;;;;;5074487;28;20082;-89
2023/02/14 01:06:29;;;;;;;33.45;21.50;;;5.70;99.90;;;;;;5074445;28;20032;-89
2023/02/14 01:08:55;;;;;;;30.85;22.13;;;5.40;99.90;;;;;;5074450;28;20051;-88
2023/02/14 01:11:23;;;;;;;34.35;22.65;;;5.30;99.90;;;;;;5074274;28;20043;-89
2023/02/14 01:13:49;;;;;;;32.33;23.25;;;5.30;99.90;;;;;;5073859;28;20025;-89
2023/02/14 01:16:19;;;;;;;33.13;21.65;;;5.50;99.90;;;;;;5074092;28;20100;-89
2023/02/14 01:18:45;;;;;;;33.40;22.27;;;5.40;99.90;;;;;;5074349;28;20028;-89
2023/02/14 01:21:21;;;;;;;34.05;22.25;;;5.80;99.90;;;;;;5074070;28;20016;-89
2023/02/14 01:23:49;;;;;;;30.98;21.38;;;5.50;99.90;;;;;;5073979;28;20036;-89
2023/02/14 01:26:15;;;;;;;31.58;21.90;;;5.30;99.90;;;;;;5072056;28;20519;-89
2023/02/14 01:28:42;;;;;;;34.83;21.92;;;5.40;99.90;;;;;;5072709;28;20086;-89
2023/02/14 01:31:17;;;;;;;34.95;21.17;;;5.70;99.90;;;;;;5074270;28;20032;-89
2023/02/14 01:33:44;;;;;;;32.67;20.88;;;5.50;99.90;;;;;;5074597;28;20067;-89
2023/02/14 01:36:19;;;;;;;31.05;20.45;;;5.50;99.90;;;;;;5074394;28;20073;-89
2023/02/14 01:38:45;;;;;;;29.13;20.25;;;5.70;99.90;;;;;;5073868;28;20070;-89
2023/02/14 01:41:11;;;;;;;30.52;20.48;;;5.40;99.90;;;;;;5073557;28;20048;-89
2023/02/14 01:43:58;;;;;;;30.73;20.52;;;5.70;99.90;;;;;;5073336;28;20564;-89
2023/02/14 01:46:26;;;;;;;31.80;20.73;;;5.50;99.90;;;;;;5073887;28;20100;-89
2023/02/14 01:48:56;;;;;;;31.13;21.00;;;5.60;99.90;;;;;;5073698;28;20027;-92
2023/02/14 01:51:22;;;;;;;34.63;21.08;;;5.70;99.90;;;;;;5073383;28;20089;-90
2023/02/14 01:53:50;;;;;;;31.02;21.17;;;5.70;99.90;;;;;;5073388;28;20032;-89
2023/02/14 01:56:25;;;;;;;29.67;20.75;;;5.80;99.90;;;;;;5073092;28;20031;-89
2023/02/14 01:58:55;;;;;;;33.30;22.50;;;5.90;99.90;;;;;;5071999;28;20060;-90
2023/02/14 02:01:22;;;;;;;32.85;22.08;;;5.60;99.90;;;;;;5073488;28;20101;-90
2023/02/14 02:03:54;;;;;;;36.17;22.45;;;5.60;99.90;;;;;;5073242;28;20111;-90
2023/02/14 02:06:38;;;;;;;37.30;22.65;;;5.50;99.90;;;;;;5073308;28;20052;-90
2023/02/14 02:09:41;;;;;;;32.40;22.25;;;5.50;99.90;;;;;;5073349;28;20104;-89
2023/02/14 02:12:06;;;;;;;34.20;22.20;;;5.40;99.90;;;;;;5072758;28;20041;-89
2023/02/14 02:14:33;;;;;;;35.13;22.92;;;5.50;99.90;;;;;;5073191;28;20032;-90
2023/02/14 02:17:13;;;;;;;31.05;21.17;;;5.40;99.90;;;;;;5073297;28;20024;-90
2023/02/14 02:20:13;;;;;;;35.97;23.23;;;5.40;99.90;;;;;;5073132;28;20017;-90
2023/02/14 02:23:08;;;;;;;38.10;22.98;;;5.40;99.90;;;;;;5073236;28;20490;-89
2023/02/14 02:26:21;;;;;;;31.63;21.77;;;5.40;99.90;;;;;;5072741;28;20543;-90
2023/02/14 02:29:05;;;;;;;34.45;22.60;;;5.40;99.90;;;;;;5070926;28;20409;-90
2023/02/14 02:31:58;;;;;;;33.33;21.42;;;5.40;99.90;;;;;;5072882;28;20020;-90
2023/02/14 02:34:58;;;;;;;31.83;21.45;;;5.30;99.90;;;;;;5072028;28;20032;-89
2023/02/14 02:37:33;;;;;;;35.05;21.98;;;5.30;99.90;;;;;;5050596;28;20048;-90
2023/02/14 02:40:01;;;;;;;36.85;21.15;;;5.20;99.90;;;;;;5050239;28;20033;-90
2023/02/14 02:42:46;;;;;;;31.85;21.70;;;5.20;99.90;;;;;;5050853;28;20566;-90
2023/02/14 02:53:01;;;;;;;31.63;20.92;;;5.10;99.90;;;;;;4992099;28;20066;-89
2023/02/14 02:55:06;;;;;;;30.92;19.90;;;5.40;99.90;;;;;;4984025;28;20045;-89
2023/02/14 02:57:37;;;;;;;32.22;21.38;;;5.10;99.90;;;;;;4971795;28;20583;-89
2023/02/14 03:00:06;;;;;;;29.48;20.50;;;5.00;99.90;;;;;;4972196;28;20410;-89
2023/02/14 03:04:46;;;;;;;31.13;20.83;;;5.00;99.90;;;;;;4971913;28;20117;-89
2023/02/14 03:05:24;;;;;;;32.55;20.38;;;5.10;99.90;;;;;;4972040;28;20035;-90
2023/02/14 03:07:49;;;;;;;31.70;19.42;;;5.20;99.90;;;;;;4971935;28;20034;-89
2023/02/14 03:10:22;;;;;;;30.48;19.80;;;5.10;99.90;;;;;;4955306;28;20047;-90
2023/02/14 03:12:58;;;;;;;28.58;19.27;;;5.30;99.90;;;;;;4971871;28;20031;-89
2023/02/14 03:15:32;;;;;;;29.67;20.67;;;4.90;99.90;;;;;;4971935;28;20050;-89
2023/02/14 03:21:19;;;;;;;29.70;19.13;;;4.90;99.90;;;;;;4972303;28;20042;-89
2023/02/14 03:23:53;;;;;;;26.52;18.48;;;5.00;99.90;;;;;;5061845;28;20037;-89
2023/02/14 03:26:21;;;;;;;26.73;17.60;;;5.10;99.90;;;;;;5052389;28;20029;-90
2023/02/14 03:29:12;;;;;;;25.55;17.67;;;4.90;99.90;;;;;;5052380;28;20374;-90
2023/02/14 03:32:02;;;;;;;26.77;17.85;;;5.00;99.90;;;;;;5044120;28;20391;-90
2023/02/14 03:34:58;;;;;;;24.90;17.70;;;4.80;99.90;;;;;;5030462;28;20099;-89
2023/02/14 03:37:48;;;;;;;26.48;16.77;;;4.80;99.90;;;;;;5029347;28;20029;-90
2023/02/14 03:40:22;;;;;;;24.42;17.33;;;4.80;99.90;;;;;;5013900;28;20068;-89
2023/02/14 03:42:54;;;;;;;26.17;17.48;;;4.70;99.90;;;;;;5013591;28;20139;-89
2023/02/14 03:45:29;;;;;;;27.92;17.75;;;4.80;99.90;;;;;;5030340;28;20108;-91
2023/02/14 03:47:58;;;;;;;28.52;18.35;;;4.90;99.90;;;;;;5030712;28;20060;-89
2023/02/14 03:50:25;;;;;;;25.50;17.52;;;5.20;99.90;;;;;;5033947;28;20033;-89
2023/02/14 03:52:55;;;;;;;26.17;16.77;;;5.00;99.90;;;;;;5033210;28;20033;-89
2023/02/14 03:55:31;;;;;;;24.73;16.40;;;5.20;99.90;;;;;;5044303;28;20120;-90
2023/02/14 03:58:07;;;;;;;25.73;16.98;;;4.90;99.90;;;;;;5054382;28;20029;-89
2023/02/14 04:00:38;;;;;;;24.25;17.38;;;4.90;99.90;;;;;;5053998;28;20025;-89
2023/02/14 04:03:12;;;;;;;26.63;16.92;;;4.90;99.90;;;;;;5053854;28;20129;-89
2023/02/14 04:05:42;;;;;;;23.52;16.60;;;4.80;99.90;;;;;;5053312;28;20104;-89
2023/02/14 04:08:09;;;;;;;25.70;16.42;;;4.70;99.90;;;;;;5053535;28;20068;-89
2023/02/14 04:10:35;;;;;;;23.65;16.15;;;5.20;99.90;;;;;;5055551;28;20036;-90
2023/02/14 04:13:00;;;;;;;24.25;16.40;;;5.10;99.90;;;;;;5055355;28;20025;-89
2023/02/14 04:15:26;;;;;;;25.98;16.85;;;5.20;99.90;;;;;;5055393;28;20584;-89
2023/02/14 04:20:36;;;;;;;22.85;16.05;;;4.90;99.90;;;;;;5055690;28;20048;-89
2023/02/14 04:23:02;;;;;;;23.60;16.15;;;4.70;99.90;;;;;;5087268;28;20025;-89
2023/02/14 04:25:28;;;;;;;23.73;15.43;;;4.90;99.90;;;;;;5055364;28;20021;-90
2023/02/14 04:27:53;;;;;;;23.80;16.25;;;4.80;99.90;;;;;;5055203;28;20173;-89
2023/02/14 04:30:22;;;;;;;23.85;16.42;;;5.10;99.90;;;;;;5055065;28;20029;-89
2023/02/14 04:32:48;;;;;;;26.27;16.75;;;4.80;99.90;;;;;;5070205;28;20147;-89
2023/02/14 04:35:14;;;;;;;22.63;15.68;;;5.10;99.90;;;;;;5075291;28;20032;-90
2023/02/14 04:37:40;;;;;;;25.65;16.73;;;4.80;99.90;;;;;;5074747;28;20025;-89
2023/02/14 04:40:07;;;;;;;24.55;16.17;;;5.00;99.90;;;;;;5074708;28;20020;-90
2023/02/14 04:42:32;;;;;;;25.33;16.73;;;4.70;99.90;;;;;;5074850;28;20027;-89
2023/02/14 04:44:58;;;;;;;25.45;16.88;;;4.60;99.90;;;;;;5074802;28;20036;-89
2023/02/14 04:47:24;;;;;;;28.67;17.77;;;4.70;99.90;;;;;;5074862;28;20481;-89
2023/02/14 04:49:49;;;;;;;26.42;17.52;;;4.70;99.90;;;;;;5074818;28;20076;-89
2023/02/14 04:52:15;;;;;;;28.38;18.27;;;4.80;99.90;;;;;;5074203;28;20036;-89
2023/02/14 04:54:41;;;;;;;30.75;17.90;;;4.70;99.90;;;;;;5074665;28;20025;-89
2023/02/14 04:57:06;;;;;;;26.42;18.08;;;4.90;99.90;;;;;;5074656;28;20024;-90
2023/02/14 04:59:32;;;;;;;28.05;17.55;;;4.90;99.90;;;;;;5074405;28;20455;-89
2023/02/14 05:01:57;;;;;;;27.40;18.52;;;5.00;99.90;;;;;;5074519;28;20028;-89
2023/02/14 05:04:23;;;;;;;27.58;19.23;;;4.80;99.90;;;;;;5074576;28;20045;-89
2023/02/14 05:06:49;;;;;;;32.33;20.35;;;4.50;99.90;;;;;;5073927;28;20023;-89
2023/02/14 05:09:15;;;;;;;29.77;20.10;;;5.00;99.90;;;;;;5074701;28;20070;-89
2023/02/14 05:11:41;;;;;;;38.97;21.02;;;4.90;99.90;;;;;;5074587;28;20035;-89
2023/02/14 05:14:06;;;;;;;32.13;21.17;;;5.00;99.90;;;;;;5074893;28;20029;-90
2023/02/14 05:16:32;;;;;;;30.63;20.17;;;5.00;99.90;;;;;;5074505;28;20052;-89
2023/02/14 05:18:58;;;;;;;30.45;19.90;;;5.00;99.90;;;;;;5074173;28;20021;-89
2023/02/14 05:21:24;;;;;;;29.40;19.70;;;5.00;99.90;;;;;;5073817;28;20024;-89
2023/02/14 05:23:49;;;;;;;28.20;18.67;;;4.90;99.90;;;;;;5073899;28;20028;-89
2023/02/14 05:26:15;;;;;;;28.88;19.42;;;4.70;99.90;;;;;;5074003;28;20044;-89
2023/02/14 05:28:41;;;;;;;32.92;19.10;;;4.60;99.90;;;;;;5073905;28;20063;-89
2023/02/14 05:31:08;;;;;;;26.30;18.40;;;4.80;99.90;;;;;;5073606;28;20068;-89
2023/02/14 05:33:34;;;;;;;29.95;18.67;;;5.00;99.90;;;;;;5073807;28;20033;-89
2023/02/14 05:36:01;;;;;;;26.95;18.25;;;4.60;99.90;;;;;;5072211;28;20172;-89
2023/02/14 05:38:27;;;;;;;27.70;18.35;;;4.70;99.90;;;;;;5073780;28;20032;-90
2023/02/14 05:40:53;;;;;;;25.55;18.08;;;4.90;99.90;;;;;;5073649;28;20059;-89
2023/02/14 05:43:18;;;;;;;27.40;18.67;;;4.80;99.90;;;;;;5073644;28;20052;-89
2023/02/14 05:45:44;;;;;;;27.77;19.08;;;4.90;99.90;;;;;;5072446;28;20115;-90
2023/02/14 05:48:09;;;;;;;29.60;17.70;;;4.60;99.90;;;;;;5073681;28;20028;-89
2023/02/14 05:50:35;;;;;;;28.25;17.88;;;4.90;99.90;;;;;;5073226;28;20440;-89
2023/02/14 05:53:01;;;;;;;27.67;18.27;;;4.60;99.90;;;;;;5073400;28;20550;-89
2023/02/14 05:55:27;;;;;;;36.88;19.10;;;4.70;99.90;;;;;;5073335;28;20029;-89
2023/02/14 05:57:52;;;;;;;28.30;18.40;;;4.70;99.90;;;;;;5073551;28;20108;-89
2023/02/14 06:00:19;;;;;;;25.55;17.55;;;4.40;99.90;;;;;;5072399;28;20024;-89
2023/02/14 06:02:44;;;;;;;30.70;18.58;;;4.50;99.90;;;;;;5071629;28;20528;-88
2023/02/14 06:05:10;;;;;;;30.55;19.00;;;4.50;99.90;;;;;;5073224;28;20112;-89
2023/02/14 06:07:36;;;;;;;32.45;20.10;;;4.60;99.90;;;;;;5071833;28;20115;-89
2023/02/14 06:10:01;;;;;;;29.95;19.83;;;4.60;99.90;;;;;;5071828;28;20021;-89
2023/02/14 06:12:27;;;;;;;30.05;19.23;;;4.50;99.90;;;;;;5072641;28;20051;-89
2023/02/14 06:14:53;;;;;;;27.67;18.10;;;4.30;99.90;;;;;;5072878;28;20047;-89
2023/02/14 06:17:18;;;;;;;29.23;18.38;;;4.40;99.90;;;;;;5072927;28;20059;-89
2023/02/14 06:19:44;;;;;;;35.40;19.67;;;4.70;99.90;;;;;;5073215;28;20122;-89
2023/02/14 06:22:10;;;;;;;29.15;17.73;;;4.40;99.90;;;;;;5072889;28;20093;-89
2023/02/14 06:24:35;;;;;;;29.80;19.08;;;4.30;99.90;;;;;;5073352;28;20020;-89
2023/02/14 06:27:01;;;;;;;30.15;19.85;;;4.30;99.90;;;;;;5073395;28;20031;-89
2023/02/14 06:29:27;;;;;;;27.63;18.48;;;4.30;99.90;;;;;;5073372;28;20028;-89
2023/02/14 06:31:52;;;;;;;26.30;17.15;;;4.60;99.90;;;;;;5071180;28;20118;-89
2023/02/14 06:34:18;;;;;;;29.08;18.13;;;4.30;99.90;;;;;;5071726;28;20470;-89
2023/02/14 06:36:44;;;;;;;28.83;18.38;;;4.50;99.90;;;;;;5072939;28;20032;-89
2023/02/14 06:39:09;;;;;;;26.27;18.00;;;4.60;99.90;;;;;;5072957;28;20052;-90
2023/02/14 06:41:35;;;;;;;26.95;18.63;;;4.30;99.90;;;;;;5071057;28;20087;-89
2023/02/14 06:44:00;;;;;;;26.63;17.13;;;4.20;99.90;;;;;;5072829;28;20020;-89
2023/02/14 06:46:26;;;;;;;25.85;16.85;;;4.60;99.90;;;;;;5071298;28;20135;-89
2023/02/14 06:48:52;;;;;;;26.95;17.50;;;4.50;99.90;;;;;;5072712;28;20497;-90
2023/02/14 06:51:17;;;;;;;31.77;18.50;;;4.20;99.90;;;;;;5072663;28;20037;-89
2023/02/14 06:53:43;;;;;;;28.33;17.38;;;4.60;99.90;;;;;;5072435;28;20393;-89
2023/02/14 06:56:09;;;;;;;26.58;17.75;;;4.50;99.90;;;;;;5072698;28;20020;-90
2023/02/14 06:58:34;;;;;;;27.20;17.23;;;4.50;99.90;;;;;;5072693;28;20025;-89
2023/02/14 07:01:00;;;;;;;27.67;17.70;;;4.70;99.90;;;;;;5072346;28;20028;-89
2023/02/14 07:03:26;;;;;;;26.73;16.65;;;4.60;99.90;;;;;;5072374;28;20032;-89
2023/02/14 07:05:52;;;;;;;23.42;16.38;;;4.40;99.90;;;;;;5072662;28;20036;-89
2023/02/14 07:08:19;;;;;;;25.85;16.25;;;4.80;99.90;;;;;;5072407;28;20035;-89
2023/02/14 07:10:45;;;;;;;26.35;16.90;;;4.70;99.90;;;;;;5072509;28;20040;-89
2023/02/14 07:13:10;;;;;;;27.92;16.85;;;4.50;99.90;;;;;;5072623;28;20520;-89
2023/02/14 07:15:36;;;;;;;32.50;17.33;;;4.70;99.90;;;;;;5072264;28;20035;-89
2023/02/14 07:18:02;;;;;;;26.80;17.65;;;4.70;99.90;;;;;;5072515;28;20025;-89
2023/02/14 07:20:28;;;;;;;27.85;17.48;;;4.50;99.90;;;;;;5072291;28;20481;-89
2023/02/14 07:22:54;;;;;;;29.65;18.23;;;4.60;99.90;;;;;;5072628;28;20543;-89
2023/02/14 07:25:20;;;;;;;31.08;18.98;;;4.90;99.90;;;;;;5076337;28;20491;-89
2023/02/14 07:27:45;;;;;;;29.25;19.52;;;4.80;99.90;;;;;;5076347;28;20058;-89
2023/02/14 07:30:13;;;;;;;33.38;20.67;;;5.10;99.90;;;;;;5074555;28;20115;-89
2023/02/14 07:32:39;;;;;;;33.95;22.00;;;4.80;99.90;;;;;;5075833;28;20134;-90
2023/02/14 07:35:05;;;;;;;30.50;20.00;;;5.30;99.90;;;;;;5076162;28;20024;-89
2023/02/14 07:37:34;;;;;;;31.83;20.45;;;5.00;99.90;;;;;;5076346;28;20028;-89
2023/02/14 07:40:02;;;;;;;31.20;20.15;;;5.10;99.90;;;;;;5076183;28;20028;-89
2023/02/14 07:42:28;;;;;;;32.40;19.27;;;5.10;99.90;;;;;;5076221;28;20097;-89
2023/02/14 07:44:54;;;;;;;29.42;19.90;;;5.50;99.90;;;;;;5075770;28;20096;-89
2023/02/14 07:47:19;;;;;;;32.85;20.55;;;5.30;99.90;;;;;;5075994;28;20542;-89
2023/02/14 07:49:45;;;;;;;31.55;20.60;;;5.40;99.90;;;;;;5075957;28;20031;-89
2023/02/14 07:52:11;;;;;;;38.53;21.70;;;5.50;99.90;;;;;;5075654;28;20040;-89
2023/02/14 07:54:37;;;;;;;31.20;21.10;;;5.90;99.90;;;;;;5075925;28;20502;-90
2023/02/14 07:57:04;;;;;;;30.92;20.40;;;5.70;99.90;;;;;;5075815;28;20037;-90
2023/02/14 07:59:30;;;;;;;33.40;21.40;;;5.90;99.90;;;;;;5075540;28;20025;-90
2023/02/14 08:01:55;;;;;;;30.35;20.98;;;6.00;99.90;;;;;;5075840;28;20492;-88
2023/02/14 08:04:24;;;;;;;31.80;21.17;;;6.60;99.90;;;;;;5075700;28;20027;-90
2023/02/14 08:06:51;;;;;;;32.70;21.48;;;6.70;99.90;;;;;;5075683;28;20028;-90
2023/02/14 08:09:23;;;;;;;37.63;21.83;;;6.70;99.90;;;;;;5075564;28;20031;-90
2023/02/14 08:14:37;;;;;;;29.33;20.45;;;7.60;99.90;;;;;;5075438;28;20031;-89
2023/02/14 08:17:04;;;;;;;31.45;21.40;;;9.10;99.90;;;;;;5075425;28;20112;-90
2023/02/14 08:19:29;;;;;;;31.17;20.52;;;10.70;99.90;;;;;;5075322;28;20024;-90
2023/02/14 08:21:55;;;;;;;32.15;21.52;;;11.90;99.90;;;;;;5075355;28;20024;-90
2023/02/14 08:24:21;;;;;;;30.95;21.02;;;13.60;99.90;;;;;;5074169;28;20029;-90
2023/02/14 08:26:46;;;;;;;29.77;21.80;;;15.00;99.90;;;;;;5073785;28;20051;-90
2023/02/14 08:29:12;;;;;;;31.85;20.98;;;16.20;99.90;;;;;;5074959;28;20028;-90
2023/02/14 08:31:38;;;;;;;33.08;21.58;;;17.00;99.90;;;;;;5074892;28;20055;-90
2023/02/14 08:34:04;;;;;;;32.35;21.13;;;17.60;99.90;;;;;;5074639;28;20025;-90
2023/02/14 08:36:30;;;;;;;31.02;21.63;;;17.80;99.90;;;;;;5075092;28;20495;-90
2023/02/14 08:38:56;;;;;;;31.55;22.50;;;17.70;99.90;;;;;;5074863;28;20028;-90
2023/02/14 08:41:22;;;;;;;34.80;21.45;;;17.70;99.90;;;;;;5074772;28;20120;-90
2023/02/14 08:43:49;;;;;;;30.95;21.92;;;18.40;99.90;;;;;;5073360;28;20024;-90
2023/02/14 08:46:15;;;;;;;31.83;22.60;;;18.30;99.90;;;;;;5074742;28;20028;-90
2023/02/14 08:48:42;;;;;;;32.13;22.40;;;19.00;99.90;;;;;;5073470;28;20385;-90
2023/02/14 08:51:11;;;;;;;31.88;22.67;;;19.50;99.90;;;;;;5075155;28;20024;-90
2023/02/14 08:53:37;;;;;;;28.40;22.52;;;19.80;99.90;;;;;;5074128;28;20037;-90
2023/02/14 08:56:13;;;;;;;29.50;21.35;;;20.60;99.90;;;;;;5073534;28;20474;-90
2023/02/14 08:58:39;;;;;;;26.17;20.38;;;21.90;99.90;;;;;;5073031;28;20058;-90
2023/02/14 09:01:14;;;;;;;24.95;20.10;;;21.80;99.90;;;;;;5073088;28;20032;-91
2023/02/14 09:03:39;;;;;;;28.95;20.90;;;22.50;99.90;;;;;;5074377;28;20024;-90
2023/02/14 09:06:08;;;;;;;22.77;19.33;;;22.60;99.90;;;;;;5074352;28;20028;-91
2023/02/14 09:08:35;;;;;;;21.58;17.67;;;23.40;99.90;;;;;;5073002;28;20427;-90
2023/02/14 09:11:09;;;;;;;22.63;18.42;;;23.50;99.90;;;;;;5074045;28;20024;-90
2023/02/14 09:13:35;;;;;;;22.13;16.38;;;24.00;99.90;;;;;;5073902;28;20033;-90
2023/02/14 09:16:08;;;;;;;18.52;15.23;;;23.90;99.90;;;;;;5074163;28;20158;-90
2023/02/14 09:18:33;;;;;;;19.15;15.80;;;23.40;99.90;;;;;;5074057;28;20077;-91
2023/02/14 09:20:59;;;;;;;22.35;15.98;;;23.80;99.90;;;;;;5073980;28;20467;-90
2023/02/14 09:23:25;;;;;;;21.65;15.82;;;23.90;99.90;;;;;;5074158;28;20035;-91
2023/02/14 09:25:51;;;;;;;21.33;16.70;;;24.30;99.90;;;;;;5073452;28;20029;-91
2023/02/14 09:28:17;;;;;;;18.50;15.00;;;25.00;99.90;;;;;;5074062;28;20028;-91
2023/02/14 09:30:43;;;;;;;21.23;16.08;;;24.70;99.90;;;;;;5073670;28;20029;-91
2023/02/14 09:33:08;;;;;;;21.35;16.23;;;24.30;99.90;;;;;;5073474;28;20507;-90
2023/02/14 09:38:18;;;;;;;20.70;15.68;;;25.40;99.90;;;;;;5073880;28;20074;-90
2023/02/14 09:40:46;;;;;;;19.73;17.05;;;25.50;99.90;;;;;;5073144;28;20049;-90
2023/02/14 09:43:22;;;;;;;21.58;16.52;;;25.30;99.90;;;;;;5073381;28;20377;-90
2023/02/14 09:45:54;;;;;;;22.63;16.83;;;25.70;99.90;;;;;;5072808;28;20101;-91
2023/02/14 09:48:36;;;;;;;18.88;15.02;;;25.20;99.90;;;;;;5072211;28;20029;-91
2023/02/14 09:51:10;;;;;;;25.58;16.45;;;26.60;99.90;;;;;;5073335;28;20462;-91
2023/02/14 09:53:43;;;;;;;19.33;15.30;;;26.60;99.90;;;;;;5073474;28;20029;-91
2023/02/14 09:56:23;;;;;;;17.58;14.77;;;27.30;99.90;;;;;;5072906;28;20013;-91
2023/02/14 09:59:04;;;;;;;17.38;14.95;;;27.70;99.90;;;;;;5073281;28;20024;-91
2023/02/14 10:01:40;;;;;;;19.30;15.35;;;27.60;99.90;;;;;;5071781;28;20024;-91
2023/02/14 10:04:14;;;;;;;17.23;14.95;;;27.30;99.90;;;;;;5072277;28;20428;-91
2023/02/14 10:06:49;;;;;;;19.60;15.20;;;27.10;99.90;;;;;;5072200;28;20035;-91
2023/02/14 10:09:43;;;;;;;21.52;14.95;;;26.70;99.90;;;;;;5073346;28;20032;-91
2023/02/14 10:12:49;;;;;;;21.15;15.32;;;26.70;99.90;;;;;;5072671;28;20048;-90
2023/02/14 10:15:22;;;;;;;19.15;15.50;;;27.40;99.90;;;;;;5068152;28;20036;-91
2023/02/14 10:18:05;;;;;;;18.35;15.90;;;28.40;99.90;;;;;;5072905;28;20025;-91
2023/02/14 10:20:40;;;;;;;18.48;15.25;;;28.80;99.90;;;;;;5072852;28;20021;-91
2023/02/14 10:23:23;;;;;;;20.10;15.65;;;28.90;99.90;;;;;;5072918;28;20028;-91
2023/02/14 10:26:09;;;;;;;18.65;15.32;;;28.90;99.90;;;;;;5071410;28;20017;-91
2023/02/14 10:28:49;;;;;;;20.60;15.32;;;28.60;99.90;;;;;;5072918;28;20028;-91
2023/02/14 10:31:20;;;;;;;21.33;16.83;;;29.50;99.90;;;;;;5072546;28;20103;-89
2023/02/14 10:34:15;;;;;;;23.27;15.85;;;29.80;99.90;;;;;;5072939;28;20035;-88
2023/02/14 10:36:50;;;;;;;23.75;17.00;;;30.20;99.90;;;;;;5069845;28;20409;-89
2023/02/14 10:39:39;;;;;;;21.63;17.13;;;30.70;99.90;;;;;;5072335;28;20037;-89
2023/02/14 10:42:40;;;;;;;21.13;16.70;;;29.10;99.90;;;;;;5072554;28;20119;-89
2023/02/14 10:45:20;;;;;;;24.10;17.15;;;28.90;99.90;;;;;;5072610;28;20048;-89
2023/02/14 10:48:15;;;;;;;21.40;16.25;;;29.50;99.90;;;;;;5072641;28;20058;-89
2023/02/14 10:50:56;;;;;;;22.77;16.13;;;29.30;99.90;;;;;;5072440;28;20029;-89
2023/02/14 10:54:11;;;;;;;20.67;16.13;;;29.40;99.90;;;;;;5072334;28;20047;-89
2023/02/14 10:56:42;;;;;;;22.13;16.35;;;29.70;99.90;;;;;;5051441;28;20117;-89
2023/02/14 10:59:26;;;;;;;22.23;17.38;;;28.80;99.90;;;;;;5056690;28;20028;-89
2023/02/14 11:01:53;;;;;;;25.55;16.00;;;29.30;99.90;;;;;;5056518;28;20029;-89
2023/02/14 11:04:22;;;;;;;19.50;15.93;;;29.70;99.90;;;;;;5056689;28;20023;-88
2023/02/14 11:06:49;;;;;;;21.45;15.95;;;29.10;99.90;;;;;;5056717;28;20028;-89
2023/02/14 11:09:18;;;;;;;20.63;15.27;;;29.10;99.90;;;;;;5057365;28;20025;-89
2023/02/14 11:11:51;;;;;;;21.30;15.68;;;30.40;99.90;;;;;;5056217;28;20036;-89
2023/02/14 11:14:22;;;;;;;22.27;15.75;;;32.50;99.90;;;;;;5056641;28;20082;-89
2023/02/14 11:16:50;;;;;;;22.42;16.25;;;30.60;99.90;;;;;;5056694;28;20025;-89
2023/02/14 11:19:24;;;;;;;20.40;15.95;;;31.30;99.90;;;;;;5056801;28;20025;-89
2023/02/14 11:21:52;;;;;;;19.48;15.25;;;30.60;99.90;;;;;;5056559;28;20021;-89
2023/02/14 11:24:27;;;;;;;18.45;15.20;;;30.60;99.90;;;;;;5056389;28;20382;-88
2023/02/14 11:26:56;;;;;;;20.08;15.48;;;31.70;99.90;;;;;;5056059;28;20037;-88
2023/02/14 11:29:29;;;;;;;18.50;15.18;;;31.60;99.90;;;;;;5056101;28;20021;-89
2023/02/14 11:31:55;;;;;;;18.08;15.43;;;32.60;99.90;;;;;;5063486;28;20390;-89
2023/02/14 11:34:35;;;;;;;17.70;14.55;;;32.50;99.90;;;;;;5075972;28;20013;-89
2023/02/14 11:37:24;;;;;;;16.90;14.75;;;31.60;99.90;;;;;;5075545;28;20028;-89
2023/02/14 11:39:53;;;;;;;19.30;15.43;;;31.20;99.90;;;;;;5075837;28;20024;-89
2023/02/14 11:42:40;;;;;;;16.60;14.48;;;32.00;99.90;;;;;;5074512;28;20148;-89
2023/02/14 11:45:24;;;;;;;17.23;14.90;;;32.20;99.90;;;;;;5075622;28;20028;-89
2023/02/14 11:48:24;;;;;;;17.70;14.50;;;32.20;99.90;;;;;;5075725;28;20052;-89
2023/02/14 11:50:54;;;;;;;21.35;14.40;;;31.00;99.90;;;;;;5075314;28;20036;-89
2023/02/14 11:53:24;;;;;;;15.98;14.02;;;30.50;99.90;;;;;;5075745;28;20028;-89
2023/02/14 11:55:55;;;;;;;16.48;14.40;;;31.50;99.90;;;;;;5075450;28;20063;-88
2023/02/14 11:58:34;;;;;;;16.80;13.50;;;31.80;99.90;;;;;;5075501;28;20107;-89
2023/02/14 12:01:01;;;;;;;17.73;13.98;;;31.50;99.90;;;;;;5075277;28;20025;-89
2023/02/14 12:03:32;;;;;;;15.90;14.07;;;31.30;99.90;;;;;;5075637;28;20021;-89
2023/02/14 12:05:59;;;;;;;17.80;14.98;;;30.00;99.90;;;;;;5075081;28;20112;-89
2023/02/14 12:08:30;;;;;;;17.33;13.98;;;31.50;99.90;;;;;;5074939;28;20025;-89
2023/02/14 12:11:02;;;;;;;18.25;13.77;;;30.70;99.90;;;;;;5073619;28;20068;-89
2023/02/14 12:13:28;;;;;;;18.77;14.52;;;30.90;99.90;;;;;;5075300;28;20036;-88
2023/02/14 12:15:56;;;;;;;17.05;13.95;;;30.20;99.90;;;;;;5075169;28;20024;-89
2023/02/14 12:18:27;;;;;;;16.42;12.98;;;31.30;99.90;;;;;;5075048;28;20032;-89
2023/02/14 12:21:18;;;;;;;18.08;13.32;;;32.20;99.90;;;;;;5074802;28;20032;-89
2023/02/14 12:24:05;;;;;;;16.65;13.85;;;31.50;99.90;;;;;;5075019;28;20059;-89
2023/02/14 12:26:45;;;;;;;16.48;13.43;;;30.10;99.90;;;;;;5075157;28;20036;-89
2023/02/14 12:29:25;;;;;;;14.23;12.55;;;30.60;99.90;;;;;;5075040;28;20046;-89
2023/02/14 12:31:51;;;;;;;18.40;13.45;;;28.50;99.90;;;;;;5074984;28;20025;-89
2023/02/14 12:34:19;;;;;;;16.10;12.98;;;28.50;99.90;;;;;;5073641;28;20489;-89
2023/02/14 12:37:09;;;;;;;15.32;12.95;;;29.40;99.90;;;;;;5074976;28;20032;-89
2023/02/14 12:39:49;;;;;;;17.73;13.65;;;29.00;99.90;;;;;;5074808;28;20435;-89
2023/02/14 12:42:34;;;;;;;15.77;13.15;;;28.50;99.90;;;;;;5075035;28;20117;-89
2023/02/14 12:45:42;;;;;;;19.02;13.27;;;29.50;99.90;;;;;;5075159;28;20021;-89
2023/02/14 12:48:10;;;;;;;14.15;12.27;;;28.90;99.90;;;;;;5074690;28;20115;-89
2023/02/14 12:50:42;;;;;;;15.13;13.52;;;29.40;99.90;;;;;;5074351;28;20056;-89
2023/02/14 12:53:45;;;;;;;14.35;12.57;;;29.00;99.90;;;;;;5075675;28;20033;-89
2023/02/14 12:56:31;;;;;;;15.88;12.93;;;29.40;99.90;;;;;;5074264;28;20496;-89
2023/02/14 12:59:02;;;;;;;15.07;12.93;;;29.40;99.90;;;;;;5073970;28;20573;-88
2023/02/14 13:01:33;;;;;;;12.88;11.00;;;28.70;99.90;;;;;;5074050;28;20024;-89
2023/02/14 13:04:06;;;;;;;15.55;13.35;;;28.00;99.90;;;;;;5074069;28;20025;-89
2023/02/14 13:06:43;;;;;;;13.75;12.25;;;26.90;99.90;;;;;;5074173;28;20020;-89
2023/02/14 13:09:12;;;;;;;15.05;12.15;;;27.00;99.90;;;;;;5074094;28;20381;-89
2023/02/14 13:12:16;;;;;;;14.20;11.77;;;27.40;99.90;;;;;;5073960;28;20473;-88